Time;durP1;ratioP1;P1;durP2;ratioP2;P2;SDS_P1;SDS_P2;PMS_P1;PMS_P2;Temp;Humidity;BMP_temperature;BMP_pressure;BME280_temperature;BME280_humidity;BME280_pressure;Samples;Min_cycle;Max_cycle;Signal;HPM_P1;HPM_P2
2022/07/22 00:00:57;;;;;;;9.77;9.00;;;;;;;;;;5053015;28;20484;-75
2022/07/22 00:03:24;;;;;;;8.70;8.00;;;;;;;;;;5052348;28;20477;-76
2022/07/22 00:05:51;;;;;;;9.17;8.57;;;;;;;;;;5052635;28;20446;-75
2022/07/22 00:08:18;;;;;;;9.67;8.87;;;;;;;;;;5052904;28;20503;-75
2022/07/22 00:10:45;;;;;;;9.03;8.13;;;;;;;;;;5035726;28;20588;-76
2022/07/22 00:13:12;;;;;;;9.07;8.30;;;;;;;;;;5032663;28;20470;-75
2022/07/22 00:15:39;;;;;;;9.00;8.23;;;;;;;;;;5036601;28;20446;-75
2022/07/22 00:18:08;;;;;;;9.67;8.70;;;;;;;;;;5048873;28;20441;-75
2022/07/22 00:20:35;;;;;;;10.00;9.10;;;;;;;;;;5051714;28;20501;-75
2022/07/22 00:23:02;;;;;;;10.00;9.30;;;;;;;;;;5052455;28;20466;-74
2022/07/22 00:25:29;;;;;;;10.27;9.37;;;;;;;;;;5052254;28;20466;-75
2022/07/22 00:27:56;;;;;;;10.00;9.00;;;;;;;;;;5052107;28;20438;-74
2022/07/22 00:30:23;;;;;;;12.13;8.77;;;;;;;;;;5052201;28;20500;-75
2022/07/22 00:32:50;;;;;;;10.23;9.23;;;;;;;;;;5051143;28;20466;-74
2022/07/22 00:35:18;;;;;;;9.87;9.13;;;;;;;;;;5041288;28;20522;-75
2022/07/22 00:37:45;;;;;;;9.67;8.97;;;;;;;;;;5033295;28;20494;-76
2022/07/22 00:40:13;;;;;;;9.50;8.80;;;;;;;;;;5033762;28;20498;-75
2022/07/22 00:42:40;;;;;;;10.50;9.40;;;;;;;;;;5032802;28;20946;-75
2022/07/22 00:45:08;;;;;;;10.90;9.83;;;;;;;;;;5033070;28;20451;-75
2022/07/22 00:47:35;;;;;;;9.40;8.70;;;;;;;;;;5032950;28;21155;-76
2022/07/22 00:50:02;;;;;;;9.47;8.70;;;;;;;;;;5032999;28;20434;-76
2022/07/22 00:52:30;;;;;;;12.17;9.67;;;;;;;;;;5032510;28;20852;-76
2022/07/22 00:54:58;;;;;;;10.40;9.50;;;;;;;;;;5032746;28;20456;-76
2022/07/22 00:57:25;;;;;;;10.60;9.60;;;;;;;;;;5032547;28;20442;-75
2022/07/22 00:59:52;;;;;;;9.73;8.93;;;;;;;;;;5031876;28;20450;-76
2022/07/22 01:02:19;;;;;;;10.60;9.53;;;;;;;;;;5031669;28;20478;-76
2022/07/22 01:04:46;;;;;;;10.00;9.10;;;;;;;;;;5031850;28;20450;-75
2022/07/22 01:07:13;;;;;;;10.40;9.30;;;;;;;;;;5031723;28;20501;-76
2022/07/22 01:09:45;;;;;;;10.40;9.50;;;;;;;;;;5039542;28;20952;-75
2022/07/22 01:12:12;;;;;;;10.67;9.60;;;;;;;;;;5051229;28;20460;-75
2022/07/22 01:14:39;;;;;;;10.67;9.77;;;;;;;;;;5050704;28;20527;-76
2022/07/22 01:17:06;;;;;;;9.80;8.80;;;;;;;;;;5051126;28;20952;-75
2022/07/22 01:19:33;;;;;;;10.50;9.60;;;;;;;;;;5051144;28;20449;-77
2022/07/22 01:22:02;;;;;;;11.07;10.17;;;;;;;;;;5051164;28;20492;-76
2022/07/22 01:24:29;;;;;;;10.40;9.33;;;;;;;;;;5050741;28;20549;-76
2022/07/22 01:26:56;;;;;;;9.50;8.70;;;;;;;;;;5051151;28;20518;-76
2022/07/22 01:29:23;;;;;;;8.93;8.17;;;;;;;;;;5050376;28;20441;-75
2022/07/22 01:31:50;;;;;;;8.87;8.17;;;;;;;;;;5050858;28;20449;-76
2022/07/22 01:34:17;;;;;;;10.10;9.30;;;;;;;;;;5050627;28;20469;-77
2022/07/22 01:36:44;;;;;;;10.43;9.37;;;;;;;;;;5050907;28;20449;-76
2022/07/22 01:39:12;;;;;;;9.77;8.97;;;;;;;;;;5050874;28;20445;-75
2022/07/22 01:41:39;;;;;;;15.37;10.13;;;;;;;;;;5050489;28;20548;-76
2022/07/22 01:44:06;;;;;;;15.90;10.13;;;;;;;;;;5050439;28;20476;-75
2022/07/22 01:46:33;;;;;;;10.53;9.50;;;;;;;;;;5050658;28;20446;-75
2022/07/22 01:49:00;;;;;;;9.83;8.90;;;;;;;;;;5050608;28;20449;-75
2022/07/22 01:51:27;;;;;;;9.93;8.83;;;;;;;;;;5050429;28;20488;-76
2022/07/22 01:53:54;;;;;;;10.90;9.90;;;;;;;;;;5050171;28;20463;-75
2022/07/22 01:56:22;;;;;;;11.83;9.30;;;;;;;;;;5050155;28;20445;-76
2022/07/22 01:58:50;;;;;;;10.33;9.37;;;;;;;;;;5050675;28;20457;-76
2022/07/22 02:01:17;;;;;;;13.80;10.50;;;;;;;;;;5050585;28;20489;-76
2022/07/22 02:03:44;;;;;;;10.60;9.80;;;;;;;;;;5049918;28;20473;-76
2022/07/22 02:06:11;;;;;;;9.77;8.97;;;;;;;;;;5050379;28;20456;-75
2022/07/22 02:08:38;;;;;;;10.30;9.50;;;;;;;;;;5050241;28;20499;-75
2022/07/22 02:11:05;;;;;;;10.63;9.57;;;;;;;;;;5030726;28;20512;-76
2022/07/22 02:13:33;;;;;;;10.30;9.40;;;;;;;;;;5030433;28;20473;-75
2022/07/22 02:16:00;;;;;;;10.77;9.73;;;;;;;;;;5030371;28;20447;-75
2022/07/22 02:18:27;;;;;;;10.40;9.50;;;;;;;;;;5030286;28;20454;-76
2022/07/22 02:20:54;;;;;;;13.30;10.30;;;;;;;;;;5030041;28;20482;-77
2022/07/22 02:23:21;;;;;;;11.73;10.70;;;;;;;;;;5029725;28;20544;-76
2022/07/22 02:25:48;;;;;;;10.90;10.00;;;;;;;;;;5030192;28;20529;-75
2022/07/22 02:28:15;;;;;;;10.60;9.70;;;;;;;;;;5030492;28;20442;-76
2022/07/22 02:30:44;;;;;;;10.80;9.90;;;;;;;;;;5030325;28;20845;-74
2022/07/22 02:33:11;;;;;;;10.30;9.40;;;;;;;;;;5029543;28;20470;-75
2022/07/22 02:35:38;;;;;;;10.73;9.77;;;;;;;;;;5029893;28;20922;-76
2022/07/22 02:38:05;;;;;;;11.03;10.00;;;;;;;;;;5029789;28;20450;-75
2022/07/22 02:40:32;;;;;;;9.80;9.10;;;;;;;;;;5029943;28;20450;-77
2022/07/22 02:42:59;;;;;;;10.40;9.57;;;;;;;;;;5029277;28;20474;-75
2022/07/22 02:45:26;;;;;;;11.10;10.30;;;;;;;;;;5029895;28;20446;-75
2022/07/22 02:47:56;;;;;;;10.77;9.90;;;;;;;;;;5029656;28;20784;-74
2022/07/22 02:50:23;;;;;;;11.00;9.90;;;;;;;;;;5030622;28;20443;-76
2022/07/22 02:52:50;;;;;;;11.00;10.10;;;;;;;;;;5031178;28;20536;-76
2022/07/22 02:55:17;;;;;;;11.53;10.60;;;;;;;;;;5030367;28;20447;-74
2022/07/22 02:57:45;;;;;;;11.50;10.60;;;;;;;;;;5029886;28;21013;-75
2022/07/22 03:00:13;;;;;;;12.83;11.67;;;;;;;;;;5029632;28;20449;-75
2022/07/22 03:02:40;;;;;;;11.90;10.97;;;;;;;;;;5029055;28;20486;-74
2022/07/22 03:05:09;;;;;;;10.80;10.00;;;;;;;;;;5029599;28;20446;-76
2022/07/22 03:07:36;;;;;;;12.93;11.83;;;;;;;;;;5029282;28;20815;-76
2022/07/22 03:10:03;;;;;;;13.17;11.97;;;;;;;;;;5040942;28;20472;-76
2022/07/22 03:12:30;;;;;;;11.00;10.20;;;;;;;;;;5049295;28;20441;-75
2022/07/22 03:14:57;;;;;;;12.47;11.43;;;;;;;;;;5049548;28;20446;-75
2022/07/22 03:17:24;;;;;;;12.67;11.67;;;;;;;;;;5049333;28;20449;-75
2022/07/22 03:19:51;;;;;;;12.60;11.60;;;;;;;;;;5049554;28;20510;-75
2022/07/22 03:22:20;;;;;;;12.80;11.80;;;;;;;;;;5049559;28;20555;-76
2022/07/22 03:24:47;;;;;;;13.67;12.37;;;;;;;;;;5049278;28;20442;-76
2022/07/22 03:27:14;;;;;;;12.30;11.20;;;;;;;;;;5049873;28;20456;-75
2022/07/22 03:29:41;;;;;;;12.73;11.83;;;;;;;;;;5049318;28;20449;-75
2022/07/22 03:32:08;;;;;;;12.50;11.40;;;;;;;;;;5049096;28;20433;-75
2022/07/22 03:34:35;;;;;;;12.67;11.60;;;;;;;;;;5049055;28;20465;-75
2022/07/22 03:37:02;;;;;;;12.37;11.47;;;;;;;;;;5049390;28;20533;-76
2022/07/22 03:39:30;;;;;;;13.63;12.40;;;;;;;;;;5049264;28;20444;-76
2022/07/22 03:41:57;;;;;;;13.80;12.60;;;;;;;;;;5049119;28;20505;-76
2022/07/22 03:44:24;;;;;;;12.73;11.77;;;;;;;;;;5049088;28;20465;-76
2022/07/22 03:46:51;;;;;;;14.63;12.63;;;;;;;;;;5049189;28;20477;-75
2022/07/22 03:49:18;;;;;;;14.20;13.00;;;;;;;;;;5049098;28;20862;-75
2022/07/22 03:51:46;;;;;;;14.23;13.03;;;;;;;;;;5051201;28;20445;-76
2022/07/22 03:54:12;;;;;;;13.70;12.40;;;;;;;;;;5052625;28;20515;-76
2022/07/22 03:56:41;;;;;;;12.67;11.77;;;;;;;;;;5052856;28;20933;-75
2022/07/22 03:59:08;;;;;;;12.77;11.77;;;;;;;;;;5052838;28;20449;-75
2022/07/22 04:01:35;;;;;;;14.13;12.97;;;;;;;;;;5053163;28;20473;-76
2022/07/22 04:04:02;;;;;;;12.43;11.53;;;;;;;;;;5052264;28;20515;-76
2022/07/22 04:06:29;;;;;;;14.17;12.97;;;;;;;;;;5052780;28;20577;-75
2022/07/22 04:08:56;;;;;;;13.20;11.90;;;;;;;;;;5050099;28;21010;-75
2022/07/22 04:11:24;;;;;;;12.70;11.50;;;;;;;;;;5032613;28;20435;-75
2022/07/22 04:13:52;;;;;;;13.47;12.37;;;;;;;;;;5032130;28;20876;-75
2022/07/22 04:16:19;;;;;;;13.80;12.53;;;;;;;;;;5032775;28;20465;-76
2022/07/22 04:18:46;;;;;;;12.93;11.83;;;;;;;;;;5032601;28;20837;-75
2022/07/22 04:21:13;;;;;;;12.97;11.83;;;;;;;;;;5032700;28;20473;-75
2022/07/22 04:23:41;;;;;;;13.27;12.07;;;;;;;;;;5032133;28;21020;-74
2022/07/22 04:26:08;;;;;;;14.07;12.80;;;;;;;;;;5032613;28;20446;-77
2022/07/22 04:28:35;;;;;;;13.47;12.37;;;;;;;;;;5033085;28;20447;-76
2022/07/22 04:31:04;;;;;;;13.67;12.47;;;;;;;;;;5033051;28;20454;-76
2022/07/22 04:33:31;;;;;;;13.93;12.73;;;;;;;;;;5032772;28;20537;-76
2022/07/22 04:35:58;;;;;;;14.10;13.00;;;;;;;;;;5033250;28;20446;-76
2022/07/22 04:38:25;;;;;;;14.10;12.80;;;;;;;;;;5033027;28;20447;-75
2022/07/22 04:40:53;;;;;;;14.50;13.40;;;;;;;;;;5032809;28;20447;-75
2022/07/22 04:43:20;;;;;;;13.87;12.57;;;;;;;;;;5032338;28;20494;-75
2022/07/22 04:45:47;;;;;;;14.17;13.07;;;;;;;;;;5032392;28;20446;-76
2022/07/22 04:48:15;;;;;;;13.33;12.23;;;;;;;;;;5031977;28;20822;-75
2022/07/22 04:50:42;;;;;;;15.30;13.90;;;;;;;;;;5032253;28;20450;-75
2022/07/22 04:53:09;;;;;;;14.13;12.87;;;;;;;;;;5031972;28;20458;-77
2022/07/22 04:55:36;;;;;;;14.73;12.77;;;;;;;;;;5032189;28;20526;-76
2022/07/22 04:58:03;;;;;;;14.33;13.07;;;;;;;;;;5032298;28;20470;-76
2022/07/22 05:00:31;;;;;;;14.57;13.17;;;;;;;;;;5032642;28;20822;-76
2022/07/22 05:02:58;;;;;;;15.50;14.30;;;;;;;;;;5030333;28;20486;-76
2022/07/22 05:05:27;;;;;;;13.20;12.20;;;;;;;;;;5031496;28;20481;-75
2022/07/22 05:07:54;;;;;;;15.07;13.80;;;;;;;;;;5031160;28;20442;-75
2022/07/22 05:10:21;;;;;;;15.30;13.80;;;;;;;;;;5045239;28;20844;-76
2022/07/22 05:12:48;;;;;;;13.93;12.60;;;;;;;;;;5051316;28;20465;-76
2022/07/22 05:15:15;;;;;;;14.87;13.47;;;;;;;;;;5051390;28;20603;-75
2022/07/22 05:17:42;;;;;;;15.53;14.13;;;;;;;;;;5051619;28;20669;-77
2022/07/22 05:20:09;;;;;;;12.60;11.60;;;;;;;;;;5051107;28;20499;-75
2022/07/22 05:22:37;;;;;;;15.17;13.97;;;;;;;;;;5050681;28;20555;-76
2022/07/22 05:25:05;;;;;;;17.13;15.67;;;;;;;;;;5051206;28;20455;-76
2022/07/22 05:27:32;;;;;;;14.67;13.47;;;;;;;;;;5052049;28;20457;-76
2022/07/22 05:29:59;;;;;;;14.37;13.27;;;;;;;;;;5051304;28;20507;-75
2022/07/22 05:32:26;;;;;;;14.87;13.40;;;;;;;;;;5052533;28;20853;-75
2022/07/22 05:34:53;;;;;;;14.17;12.97;;;;;;;;;;5057892;28;20441;-75
2022/07/22 05:37:20;;;;;;;16.40;14.80;;;;;;;;;;5057425;28;20457;-77
2022/07/22 05:39:48;;;;;;;15.50;14.10;;;;;;;;;;5055697;28;20586;-77
2022/07/22 05:42:15;;;;;;;14.40;13.20;;;;;;;;;;5057466;28;20477;-76
2022/07/22 05:44:42;;;;;;;13.63;12.60;;;;;;;;;;5059365;28;20980;-75
2022/07/22 05:47:09;;;;;;;14.47;13.17;;;;;;;;;;5056881;28;20449;-76
2022/07/22 05:49:36;;;;;;;15.63;14.43;;;;;;;;;;5051524;28;20457;-76
2022/07/22 05:52:03;;;;;;;15.50;14.23;;;;;;;;;;5051812;28;20449;-76
2022/07/22 05:54:30;;;;;;;15.70;14.47;;;;;;;;;;5051665;28;21030;-75
2022/07/22 05:56:59;;;;;;;14.63;13.33;;;;;;;;;;5051912;28;20438;-77
2022/07/22 05:59:26;;;;;;;14.43;13.30;;;;;;;;;;5051100;28;20441;-75
2022/07/22 06:01:53;;;;;;;14.40;13.30;;;;;;;;;;5050598;28;20452;-77
2022/07/22 06:04:21;;;;;;;14.43;13.33;;;;;;;;;;5049949;28;20988;-77
2022/07/22 06:06:48;;;;;;;12.70;11.67;;;;;;;;;;5050725;28;20445;-77
2022/07/22 06:09:15;;;;;;;15.40;13.90;;;;;;;;;;5046109;28;20444;-76
2022/07/22 06:11:42;;;;;;;14.07;12.90;;;;;;;;;;5030773;28;20529;-76
2022/07/22 06:14:10;;;;;;;14.50;13.17;;;;;;;;;;5029913;28;21008;-75
2022/07/22 06:16:37;;;;;;;14.40;13.10;;;;;;;;;;5030516;28;20438;-76
2022/07/22 06:19:05;;;;;;;14.20;13.00;;;;;;;;;;5030663;28;20497;-75
2022/07/22 06:21:32;;;;;;;15.80;14.27;;;;;;;;;;5030611;28;20457;-75
2022/07/22 06:23:59;;;;;;;14.53;13.43;;;;;;;;;;5030014;28;20493;-77
2022/07/22 06:26:26;;;;;;;14.93;13.73;;;;;;;;;;5030577;28;20546;-76
2022/07/22 06:28:53;;;;;;;14.53;13.27;;;;;;;;;;5030373;28;20512;-77
2022/07/22 06:31:21;;;;;;;16.80;14.97;;;;;;;;;;5030095;28;20477;-76
2022/07/22 06:33:48;;;;;;;13.47;12.40;;;;;;;;;;5029884;28;20520;-75
2022/07/22 06:36:17;;;;;;;15.93;14.50;;;;;;;;;;5031038;28;20937;-77
2022/07/22 06:38:44;;;;;;;15.77;14.37;;;;;;;;;;5031963;28;20552;-75
2022/07/22 06:41:13;;;;;;;14.70;13.40;;;;;;;;;;5031840;28;20468;-77
2022/07/22 06:43:40;;;;;;;14.80;13.53;;;;;;;;;;5030561;28;20482;-75
2022/07/22 06:46:07;;;;;;;15.03;13.70;;;;;;;;;;5031574;28;20480;-76
2022/07/22 06:48:35;;;;;;;15.90;14.23;;;;;;;;;;5030914;28;20957;-76
2022/07/22 06:51:02;;;;;;;14.10;13.00;;;;;;;;;;5030224;28;20504;-76
2022/07/22 06:53:29;;;;;;;15.17;13.87;;;;;;;;;;5029814;28;20458;-75
2022/07/22 06:55:56;;;;;;;14.93;13.53;;;;;;;;;;5030018;28;20458;-76
2022/07/22 06:58:23;;;;;;;13.90;12.70;;;;;;;;;;5030110;28;20450;-76
2022/07/22 07:00:50;;;;;;;13.83;12.63;;;;;;;;;;5030345;28;20442;-76
2022/07/22 07:03:17;;;;;;;13.90;12.80;;;;;;;;;;5029476;28;20957;-76
2022/07/22 07:05:46;;;;;;;13.73;12.50;;;;;;;;;;5029789;28;20446;-75
2022/07/22 07:08:13;;;;;;;13.37;12.27;;;;;;;;;;5029831;28;20999;-76
2022/07/22 07:10:40;;;;;;;13.53;12.23;;;;;;;;;;5045771;28;20557;-76
2022/07/22 07:13:07;;;;;;;13.23;12.20;;;;;;;;;;5049194;28;20469;-76
2022/07/22 07:15:34;;;;;;;12.77;11.73;;;;;;;;;;5049750;28;20487;-77
2022/07/22 07:18:01;;;;;;;13.90;12.90;;;;;;;;;;5049733;28;20858;-75
2022/07/22 07:20:28;;;;;;;13.73;12.57;;;;;;;;;;5049824;28;20453;-76
2022/07/22 07:22:57;;;;;;;12.63;11.57;;;;;;;;;;5049125;28;20548;-76
2022/07/22 07:25:24;;;;;;;13.13;11.80;;;;;;;;;;5049560;28;20449;-77
2022/07/22 07:27:51;;;;;;;12.80;11.80;;;;;;;;;;5053448;28;20441;-77
2022/07/22 07:30:18;;;;;;;14.90;13.50;;;;;;;;;;5053764;28;20835;-76
2022/07/22 07:32:45;;;;;;;14.17;12.97;;;;;;;;;;5053279;28;20487;-76
2022/07/22 07:35:12;;;;;;;14.50;13.40;;;;;;;;;;5053763;28;20867;-76
2022/07/22 07:37:39;;;;;;;14.77;13.50;;;;;;;;;;5053581;28;20456;-76
2022/07/22 07:40:08;;;;;;;13.57;12.20;;;;;;;;;;5053836;28;20438;-75
2022/07/22 07:42:36;;;;;;;16.43;14.80;;;;;;;;;;5053836;28;20830;-76
2022/07/22 07:45:04;;;;;;;13.37;12.20;;;;;;;;;;5053131;28;20441;-75
2022/07/22 07:47:31;;;;;;;15.10;13.77;;;;;;;;;;5053797;28;20493;-76
2022/07/22 07:50:00;;;;;;;13.80;12.70;;;;;;;;;;5053101;28;20441;-76
2022/07/22 07:52:27;;;;;;;15.00;13.60;;;;;;;;;;5052748;28;20445;-75
2022/07/22 07:54:55;;;;;;;16.93;12.60;;;;;;;;;;5053258;28;20453;-75
2022/07/22 07:57:23;;;;;;;15.03;13.73;;;;;;;;;;5053142;28;20441;-75
2022/07/22 07:59:50;;;;;;;13.90;12.70;;;;;;;;;;5053722;28;20441;-75
2022/07/22 08:02:17;;;;;;;14.37;13.07;;;;;;;;;;5052905;28;20933;-75
2022/07/22 08:04:44;;;;;;;14.97;13.77;;;;;;;;;;5053021;28;20551;-76
2022/07/22 08:07:11;;;;;;;13.67;12.67;;;;;;;;;;5052850;28;20453;-75
2022/07/22 08:09:39;;;;;;;14.37;13.10;;;;;;;;;;5044766;28;20438;-76
2022/07/22 08:12:06;;;;;;;13.60;12.50;;;;;;;;;;5032783;28;20541;-74
2022/07/22 08:14:35;;;;;;;16.00;14.17;;;;;;;;;;5032871;28;20683;-74
2022/07/22 08:17:02;;;;;;;13.87;12.77;;;;;;;;;;5032760;28;20504;-76
2022/07/22 08:19:29;;;;;;;13.40;11.87;;;;;;;;;;5032592;28;20435;-75
2022/07/22 08:21:56;;;;;;;13.27;12.17;;;;;;;;;;5032500;28;20447;-77
2022/07/22 08:24:23;;;;;;;14.10;13.00;;;;;;;;;;5032124;28;20508;-76
2022/07/22 08:26:50;;;;;;;13.00;11.87;;;;;;;;;;5032378;28;20438;-76
2022/07/22 08:29:17;;;;;;;14.30;13.00;;;;;;;;;;5032544;28;20500;-76
2022/07/22 08:31:46;;;;;;;13.87;12.47;;;;;;;;;;5032477;28;20442;-75
2022/07/22 08:34:13;;;;;;;13.57;12.40;;;;;;;;;;5032149;28;21047;-77
2022/07/22 08:36:40;;;;;;;14.40;13.30;;;;;;;;;;5032390;28;20492;-77
2022/07/22 08:39:07;;;;;;;12.90;11.80;;;;;;;;;;5033041;28;20481;-76
2022/07/22 08:41:38;;;;;;;11.93;10.93;;;;;;;;;;5033158;28;20454;-75
2022/07/22 08:44:05;;;;;;;12.33;11.43;;;;;;;;;;5032983;28;20479;-75
2022/07/22 08:46:32;;;;;;;11.37;10.37;;;;;;;;;;5033355;28;20442;-75
2022/07/22 08:49:01;;;;;;;12.57;11.47;;;;;;;;;;5033850;28;20451;-76
2022/07/22 08:51:28;;;;;;;11.87;10.97;;;;;;;;;;5036348;28;20442;-77
2022/07/22 08:53:55;;;;;;;11.93;11.03;;;;;;;;;;5031846;28;20458;-77
2022/07/22 08:56:23;;;;;;;11.80;10.67;;;;;;;;;;5031917;28;20439;-77
2022/07/22 08:58:50;;;;;;;12.07;11.17;;;;;;;;;;5031807;28;20450;-75
2022/07/22 09:01:17;;;;;;;11.70;10.80;;;;;;;;;;5036414;28;20457;-77
2022/07/22 09:03:46;;;;;;;11.47;10.57;;;;;;;;;;5038161;28;20530;-76
2022/07/22 09:06:14;;;;;;;11.07;10.27;;;;;;;;;;5042177;28;20828;-75
2022/07/22 09:08:54;;;;;;;11.50;10.60;;;;;;;;;;5034886;28;20470;-75
2022/07/22 09:11:22;;;;;;;12.30;11.30;;;;;;;;;;5034227;28;20450;-75
2022/07/22 09:13:50;;;;;;;12.03;11.13;;;;;;;;;;5035640;28;20470;-75
2022/07/22 09:16:17;;;;;;;13.03;12.03;;;;;;;;;;5033357;28;20438;-75
2022/07/22 09:18:48;;;;;;;11.90;10.97;;;;;;;;;;5031630;28;20592;-76
2022/07/22 09:21:16;;;;;;;12.30;11.33;;;;;;;;;;5031077;28;21007;-75
2022/07/22 09:23:43;;;;;;;11.53;10.33;;;;;;;;;;5030867;28;20493;-76
2022/07/22 09:26:20;;;;;;;12.37;11.27;;;;;;;;;;5031173;28;20492;-76
2022/07/22 09:28:54;;;;;;;11.63;10.70;;;;;;;;;;5031220;28;20980;-76
2022/07/22 09:31:26;;;;;;;12.60;11.33;;;;;;;;;;5031418;28;20453;-76
2022/07/22 09:33:53;;;;;;;14.40;13.07;;;;;;;;;;5031022;28;21013;-75
2022/07/22 09:36:22;;;;;;;10.33;9.63;;;;;;;;;;5031246;28;20522;-75
2022/07/22 09:38:49;;;;;;;11.50;10.43;;;;;;;;;;5030883;28;20492;-75
2022/07/22 09:41:17;;;;;;;10.10;9.30;;;;;;;;;;5030999;28;20449;-76
2022/07/22 09:43:45;;;;;;;10.40;9.60;;;;;;;;;;5030510;28;20810;-75
2022/07/22 09:46:12;;;;;;;10.10;9.40;;;;;;;;;;5031293;28;20996;-75
2022/07/22 09:48:39;;;;;;;10.00;9.20;;;;;;;;;;5031386;28;20496;-75
2022/07/22 09:51:07;;;;;;;10.70;9.50;;;;;;;;;;5030560;28;20454;-76
2022/07/22 09:53:35;;;;;;;12.70;11.60;;;;;;;;;;5030458;28;20463;-75
2022/07/22 09:56:04;;;;;;;10.57;9.63;;;;;;;;;;5030634;28;20458;-75
2022/07/22 09:58:31;;;;;;;10.77;10.00;;;;;;;;;;5030676;28;20450;-76
2022/07/22 10:00:59;;;;;;;9.93;9.13;;;;;;;;;;5030615;28;20443;-76
2022/07/22 10:03:27;;;;;;;10.03;9.23;;;;;;;;;;5029895;28;20486;-76
2022/07/22 10:05:55;;;;;;;13.53;9.70;;;;;;;;;;5030318;28;20974;-75
2022/07/22 10:08:22;;;;;;;9.77;8.87;;;;;;;;;;5030703;28;20515;-75
2022/07/22 10:10:51;;;;;;;10.03;9.23;;;;;;;;;;5048067;28;20460;-74
2022/07/22 10:13:19;;;;;;;10.27;9.57;;;;;;;;;;5049866;28;20454;-75
2022/07/22 10:15:46;;;;;;;9.90;9.20;;;;;;;;;;5050329;28;20445;-75
2022/07/22 10:18:15;;;;;;;10.30;9.60;;;;;;;;;;5050015;28;20453;-75
2022/07/22 10:20:42;;;;;;;9.13;8.33;;;;;;;;;;5050248;28;20789;-76
2022/07/22 10:23:10;;;;;;;9.23;8.63;;;;;;;;;;5049694;28;20469;-76
2022/07/22 10:25:51;;;;;;;9.73;9.03;;;;;;;;;;5050210;28;20454;-76
2022/07/22 10:28:22;;;;;;;9.20;8.57;;;;;;;;;;5050067;28;20438;-75
2022/07/22 10:30:49;;;;;;;9.33;8.63;;;;;;;;;;5049863;28;20528;-75
2022/07/22 10:33:19;;;;;;;9.50;8.80;;;;;;;;;;5049817;28;20591;-75
2022/07/22 10:35:54;;;;;;;9.87;9.17;;;;;;;;;;5050231;28;20489;-76
2022/07/22 10:38:22;;;;;;;10.37;9.57;;;;;;;;;;5050187;28;20445;-75
2022/07/22 10:40:55;;;;;;;10.63;9.60;;;;;;;;;;5050099;28;20541;-75
2022/07/22 10:43:22;;;;;;;9.30;8.70;;;;;;;;;;5049084;28;20501;-74
2022/07/22 10:45:50;;;;;;;10.03;9.37;;;;;;;;;;5050101;28;20441;-74
2022/07/22 10:48:19;;;;;;;10.10;9.33;;;;;;;;;;5049939;28;20438;-75
2022/07/22 10:50:49;;;;;;;9.70;8.90;;;;;;;;;;5050186;28;20513;-75
2022/07/22 10:53:17;;;;;;;9.80;9.10;;;;;;;;;;5049933;28;20461;-75
2022/07/22 10:56:05;;;;;;;10.03;9.33;;;;;;;;;;5049502;28;20988;-75
2022/07/22 10:58:56;;;;;;;9.47;8.77;;;;;;;;;;5049932;28;20455;-75
2022/07/22 11:01:25;;;;;;;9.40;8.70;;;;;;;;;;5036348;28;20544;-77
2022/07/22 11:03:52;;;;;;;9.17;8.47;;;;;;;;;;5053360;28;20538;-75
2022/07/22 11:06:26;;;;;;;8.67;8.07;;;;;;;;;;5053654;28;20933;-75
2022/07/22 11:08:54;;;;;;;9.73;9.03;;;;;;;;;;5053824;28;20441;-77
2022/07/22 11:11:34;;;;;;;9.83;9.00;;;;;;;;;;5054033;28;20442;-75
2022/07/22 11:14:01;;;;;;;9.17;8.53;;;;;;;;;;5053541;28;20454;-76
2022/07/22 11:16:28;;;;;;;9.53;8.83;;;;;;;;;;5053968;28;20453;-76
2022/07/22 11:18:56;;;;;;;8.80;8.10;;;;;;;;;;5053714;28;20863;-78
2022/07/22 11:21:24;;;;;;;9.07;8.27;;;;;;;;;;5053439;28;20448;-75
2022/07/22 11:23:52;;;;;;;8.93;8.43;;;;;;;;;;5053620;28;20479;-75
2022/07/22 11:26:21;;;;;;;8.77;8.27;;;;;;;;;;5053255;28;20761;-77
2022/07/22 11:28:49;;;;;;;9.20;8.57;;;;;;;;;;5053464;28;20519;-77
2022/07/22 11:31:17;;;;;;;9.83;9.00;;;;;;;;;;5053649;28;20854;-75
2022/07/22 11:33:44;;;;;;;9.07;8.30;;;;;;;;;;5052980;28;20461;-75
2022/07/22 11:36:12;;;;;;;9.17;8.47;;;;;;;;;;5053299;28;20535;-75
2022/07/22 11:38:43;;;;;;;9.53;8.83;;;;;;;;;;5053131;28;20932;-75
2022/07/22 11:41:10;;;;;;;9.20;8.27;;;;;;;;;;5053280;28;20505;-76
2022/07/22 11:43:42;;;;;;;10.00;9.10;;;;;;;;;;5052410;28;20461;-74
2022/07/22 11:46:10;;;;;;;9.40;8.70;;;;;;;;;;5053352;28;20810;-76
2022/07/22 11:48:38;;;;;;;9.20;8.60;;;;;;;;;;5053415;28;20437;-75
2022/07/22 11:51:05;;;;;;;8.40;7.90;;;;;;;;;;5053406;28;20538;-76
2022/07/22 11:53:32;;;;;;;7.60;7.13;;;;;;;;;;5052663;28;20542;-76
2022/07/22 11:56:00;;;;;;;8.40;7.80;;;;;;;;;;5052979;28;20464;-76
2022/07/22 11:58:40;;;;;;;8.00;7.50;;;;;;;;;;5054533;28;20862;-76
2022/07/22 12:01:07;;;;;;;8.43;7.87;;;;;;;;;;5054718;28;20449;-74
2022/07/22 12:03:37;;;;;;;8.80;8.20;;;;;;;;;;5053066;28;20553;-75
2022/07/22 12:06:05;;;;;;;7.90;7.40;;;;;;;;;;5052734;28;20437;-75
2022/07/22 12:08:33;;;;;;;8.40;7.90;;;;;;;;;;5052742;28;20867;-75
2022/07/22 12:11:00;;;;;;;7.70;7.20;;;;;;;;;;5033570;28;20446;-75
2022/07/22 12:13:31;;;;;;;8.07;7.47;;;;;;;;;;5032699;28;20473;-76
2022/07/22 12:15:58;;;;;;;7.70;7.20;;;;;;;;;;5032832;28;20453;-76
2022/07/22 12:18:26;;;;;;;7.90;7.20;;;;;;;;;;5032718;28;20450;-74
2022/07/22 12:20:55;;;;;;;7.90;7.30;;;;;;;;;;5033866;28;20943;-75
2022/07/22 12:23:23;;;;;;;8.60;8.10;;;;;;;;;;5032882;28;20473;-75
2022/07/22 12:25:54;;;;;;;7.67;7.07;;;;;;;;;;5033146;28;20474;-75
2022/07/22 12:28:21;;;;;;;7.13;6.73;;;;;;;;;;5032723;28;20446;-77
2022/07/22 12:30:48;;;;;;;7.20;6.70;;;;;;;;;;5032977;28;20459;-74
2022/07/22 12:33:16;;;;;;;7.50;7.00;;;;;;;;;;5031910;28;20462;-76
2022/07/22 12:35:43;;;;;;;7.53;7.03;;;;;;;;;;5032125;28;20446;-75
2022/07/22 12:38:12;;;;;;;6.87;6.40;;;;;;;;;;5032899;28;20446;-75
2022/07/22 12:40:39;;;;;;;6.40;6.00;;;;;;;;;;5032603;28;20446;-76
2022/07/22 12:43:08;;;;;;;7.60;7.00;;;;;;;;;;5032576;28;20821;-76
2022/07/22 12:45:36;;;;;;;7.83;7.23;;;;;;;;;;5032546;28;20474;-75
2022/07/22 12:48:08;;;;;;;8.03;7.50;;;;;;;;;;5032089;28;20785;-76
2022/07/22 12:50:36;;;;;;;7.73;7.23;;;;;;;;;;5031817;28;20446;-76
2022/07/22 12:53:05;;;;;;;8.10;7.50;;;;;;;;;;5031774;28;20493;-75
2022/07/22 12:55:34;;;;;;;7.97;7.43;;;;;;;;;;5032618;28;20443;-75
2022/07/22 12:58:01;;;;;;;8.27;7.57;;;;;;;;;;5032407;28;20508;-75
2022/07/22 13:00:29;;;;;;;7.70;7.20;;;;;;;;;;5032675;28;20450;-75
2022/07/22 13:02:57;;;;;;;7.70;7.20;;;;;;;;;;5031449;28;20505;-75
2022/07/22 13:05:24;;;;;;;6.80;6.30;;;;;;;;;;5032578;28;20987;-76
2022/07/22 13:07:53;;;;;;;7.33;6.80;;;;;;;;;;5031605;28;20443;-75
2022/07/22 13:10:20;;;;;;;8.90;6.30;;;;;;;;;;5045175;28;20523;-75
2022/07/22 13:12:48;;;;;;;6.60;6.10;;;;;;;;;;5051184;28;20523;-75
2022/07/22 13:15:15;;;;;;;6.97;5.97;;;;;;;;;;5051104;28;20937;-75
2022/07/22 13:17:43;;;;;;;6.07;5.67;;;;;;;;;;5051532;28;20441;-75
2022/07/22 13:20:11;;;;;;;6.60;6.20;;;;;;;;;;5051483;28;20454;-75
2022/07/22 13:22:38;;;;;;;6.50;6.07;;;;;;;;;;5050497;28;20454;-76
2022/07/22 13:25:05;;;;;;;6.87;6.27;;;;;;;;;;5049842;28;21015;-76
2022/07/22 13:27:32;;;;;;;5.63;5.33;;;;;;;;;;5050965;28;20496;-75
2022/07/22 13:30:00;;;;;;;6.23;5.80;;;;;;;;;;5050819;28;20469;-75
2022/07/22 13:32:27;;;;;;;7.20;6.50;;;;;;;;;;5050891;28;20476;-75
2022/07/22 13:34:55;;;;;;;6.17;5.77;;;;;;;;;;5051253;28;20448;-76
2022/07/22 13:37:22;;;;;;;6.87;6.37;;;;;;;;;;5050947;28;21013;-76
2022/07/22 13:39:49;;;;;;;6.57;6.17;;;;;;;;;;5050938;28;20452;-76
2022/07/22 13:42:18;;;;;;;6.53;5.93;;;;;;;;;;5050804;28;20933;-76
2022/07/22 13:44:45;;;;;;;6.00;5.60;;;;;;;;;;5050537;28;20477;-77
2022/07/22 13:47:13;;;;;;;6.20;5.80;;;;;;;;;;5051036;28;20449;-75
2022/07/22 13:49:40;;;;;;;5.93;5.53;;;;;;;;;;5051204;28;20515;-76
2022/07/22 13:52:07;;;;;;;5.87;5.57;;;;;;;;;;5050915;28;20450;-75
2022/07/22 13:54:35;;;;;;;6.40;5.90;;;;;;;;;;5050265;28;20477;-76
2022/07/22 13:57:02;;;;;;;6.37;5.93;;;;;;;;;;5050379;28;20881;-76
2022/07/22 13:59:30;;;;;;;6.53;6.00;;;;;;;;;;5051391;28;20824;-76
2022/07/22 14:01:57;;;;;;;6.03;5.53;;;;;;;;;;5050887;28;20532;-76
2022/07/22 14:04:26;;;;;;;5.87;5.47;;;;;;;;;;5050221;28;21050;-76
2022/07/22 14:06:53;;;;;;;6.60;6.13;;;;;;;;;;5050849;28;20540;-75
2022/07/22 14:09:20;;;;;;;6.30;5.70;;;;;;;;;;5045192;28;20457;-77
2022/07/22 14:11:47;;;;;;;5.97;5.57;;;;;;;;;;5030224;28;20451;-76
2022/07/22 14:14:14;;;;;;;6.57;6.07;;;;;;;;;;5030094;28;20520;-76
2022/07/22 14:16:42;;;;;;;5.33;5.03;;;;;;;;;;5031160;28;20902;-76
2022/07/22 14:19:09;;;;;;;6.97;6.37;;;;;;;;;;5030989;28;20455;-76
2022/07/22 14:21:39;;;;;;;5.37;5.03;;;;;;;;;;5031679;28;20500;-76
2022/07/22 14:24:07;;;;;;;5.73;5.43;;;;;;;;;;5031046;28;20462;-77
2022/07/22 14:26:34;;;;;;;5.10;4.80;;;;;;;;;;5031173;28;20494;-76
2022/07/22 14:29:01;;;;;;;6.00;5.50;;;;;;;;;;5030922;28;20859;-74
2022/07/22 14:31:28;;;;;;;5.90;5.60;;;;;;;;;;5030524;28;20493;-77